<?xml version="1.0" encoding="UTF-8" standalone="no" ?>
<gpx xmlns="http://www.topografix.com/GPX/1/1" xmlns:xsi="http://www.w3.org/2001/XMLSchema-instance" xsi:schemaLocation="http://www.topografix.com/GPX/1/1 http://www.topografix.com/GPX/1/1/gpx.xsd" version="1.1" creator="VisuGPX - https://www.visugpx.com">
  <metadata>
    <name>Talloires-9km650d+</name>
  </metadata>
  <trk>
    <name><![CDATA[Annecy 2 - Direct ]]></name>
    <trkseg>
      <trkpt lat="45.83936" lon="6.22771">
        <ele>735.9</ele>
        <time>2023-07-05T17:41:25.490Z</time>
      </trkpt>
      <trkpt lat="45.83926" lon="6.22728">
        <ele>733.45</ele>
        <time>2023-07-05T17:41:27.791Z</time>
      </trkpt>
      <trkpt lat="45.83923" lon="6.22704">
        <ele>731.76</ele>
        <time>2023-07-05T17:41:30.098Z</time>
      </trkpt>
      <trkpt lat="45.8394" lon="6.22674">
        <ele>730.07</ele>
        <time>2023-07-05T17:41:32.414Z</time>
      </trkpt>
      <trkpt lat="45.83947" lon="6.22665">
        <ele>728.45</ele>
        <time>2023-07-05T17:41:34.733Z</time>
      </trkpt>
      <trkpt lat="45.83967" lon="6.22653">
        <ele>726.81</ele>
        <time>2023-07-05T17:41:37.060Z</time>
      </trkpt>
      <trkpt lat="45.84001" lon="6.22629">
        <ele>725.04</ele>
        <time>2023-07-05T17:41:39.399Z</time>
      </trkpt>
      <trkpt lat="45.84024" lon="6.2262">
        <ele>723.47</ele>
        <time>2023-07-05T17:41:41.746Z</time>
      </trkpt>
      <trkpt lat="45.8405" lon="6.22599">
        <ele>721.93</ele>
        <time>2023-07-05T17:41:44.103Z</time>
      </trkpt>
      <trkpt lat="45.84115" lon="6.22561">
        <ele>720.21</ele>
        <time>2023-07-05T17:41:46.483Z</time>
      </trkpt>
      <trkpt lat="45.84127" lon="6.22556">
        <ele>719.12</ele>
        <time>2023-07-05T17:41:48.868Z</time>
      </trkpt>
      <trkpt lat="45.84131" lon="6.22556">
        <ele>718.14</ele>
        <time>2023-07-05T17:41:51.254Z</time>
      </trkpt>
      <trkpt lat="45.84137" lon="6.22559">
        <ele>717.24</ele>
        <time>2023-07-05T17:41:53.642Z</time>
      </trkpt>
      <trkpt lat="45.84149" lon="6.22572">
        <ele>716.47</ele>
        <time>2023-07-05T17:41:56.035Z</time>
      </trkpt>
      <trkpt lat="45.84158" lon="6.22579">
        <ele>715.7</ele>
        <time>2023-07-05T17:41:58.432Z</time>
      </trkpt>
      <trkpt lat="45.84164" lon="6.22581">
        <ele>714.94</ele>
        <time>2023-07-05T17:42:00.831Z</time>
      </trkpt>
      <trkpt lat="45.84156" lon="6.2257">
        <ele>714.14</ele>
        <time>2023-07-05T17:42:03.233Z</time>
      </trkpt>
      <trkpt lat="45.84108" lon="6.22503">
        <ele>713.25</ele>
        <time>2023-07-05T17:42:05.658Z</time>
      </trkpt>
      <trkpt lat="45.84089" lon="6.2249">
        <ele>712.66</ele>
        <time>2023-07-05T17:42:08.090Z</time>
      </trkpt>
      <trkpt lat="45.84078" lon="6.22487">
        <ele>712.08</ele>
        <time>2023-07-05T17:42:10.525Z</time>
      </trkpt>
      <trkpt lat="45.84062" lon="6.22482">
        <ele>711.48</ele>
        <time>2023-07-05T17:42:12.966Z</time>
      </trkpt>
      <trkpt lat="45.84042" lon="6.22482">
        <ele>710.87</ele>
        <time>2023-07-05T17:42:15.414Z</time>
      </trkpt>
      <trkpt lat="45.84043" lon="6.2248">
        <ele>709.98</ele>
        <time>2023-07-05T17:42:17.862Z</time>
      </trkpt>
      <trkpt lat="45.84049" lon="6.22465">
        <ele>708.91</ele>
        <time>2023-07-05T17:42:20.314Z</time>
      </trkpt>
      <trkpt lat="45.84054" lon="6.22444">
        <ele>707.73</ele>
        <time>2023-07-05T17:42:22.771Z</time>
      </trkpt>
      <trkpt lat="45.84059" lon="6.22439">
        <ele>706.54</ele>
        <time>2023-07-05T17:42:25.230Z</time>
      </trkpt>
      <trkpt lat="45.84059" lon="6.22431">
        <ele>705.21</ele>
        <time>2023-07-05T17:42:27.691Z</time>
      </trkpt>
      <trkpt lat="45.84067" lon="6.22414">
        <ele>703.6</ele>
        <time>2023-07-05T17:42:30.157Z</time>
      </trkpt>
      <trkpt lat="45.84068" lon="6.22396">
        <ele>701.92</ele>
        <time>2023-07-05T17:42:32.627Z</time>
      </trkpt>
      <trkpt lat="45.84078" lon="6.22383">
        <ele>700.07</ele>
        <time>2023-07-05T17:42:35.102Z</time>
      </trkpt>
      <trkpt lat="45.84077" lon="6.22373">
        <ele>698.08</ele>
        <time>2023-07-05T17:42:37.579Z</time>
      </trkpt>
      <trkpt lat="45.84072" lon="6.22346">
        <ele>695.76</ele>
        <time>2023-07-05T17:42:40.063Z</time>
      </trkpt>
      <trkpt lat="45.84048" lon="6.22284">
        <ele>692.79</ele>
        <time>2023-07-05T17:42:42.563Z</time>
      </trkpt>
      <trkpt lat="45.84041" lon="6.22271">
        <ele>690.25</ele>
        <time>2023-07-05T17:42:45.067Z</time>
      </trkpt>
      <trkpt lat="45.84042" lon="6.22262">
        <ele>687.5</ele>
        <time>2023-07-05T17:42:47.573Z</time>
      </trkpt>
      <trkpt lat="45.84033" lon="6.22253">
        <ele>684.62</ele>
        <time>2023-07-05T17:42:50.083Z</time>
      </trkpt>
      <trkpt lat="45.84031" lon="6.22236">
        <ele>681.19</ele>
        <time>2023-07-05T17:42:52.597Z</time>
      </trkpt>
      <trkpt lat="45.84037" lon="6.2223">
        <ele>677.53</ele>
        <time>2023-07-05T17:42:55.113Z</time>
      </trkpt>
      <trkpt lat="45.84039" lon="6.2222">
        <ele>673.53</ele>
        <time>2023-07-05T17:42:57.632Z</time>
      </trkpt>
      <trkpt lat="45.84029" lon="6.22212">
        <ele>669.38</ele>
        <time>2023-07-05T17:43:00.154Z</time>
      </trkpt>
      <trkpt lat="45.84032" lon="6.22204">
        <ele>664.56</ele>
        <time>2023-07-05T17:43:02.679Z</time>
      </trkpt>
      <trkpt lat="45.84025" lon="6.22192">
        <ele>659.37</ele>
        <time>2023-07-05T17:43:05.207Z</time>
      </trkpt>
      <trkpt lat="45.84013" lon="6.22184">
        <ele>653.82</ele>
        <time>2023-07-05T17:43:07.740Z</time>
      </trkpt>
      <trkpt lat="45.83996" lon="6.22156">
        <ele>647.05</ele>
        <time>2023-07-05T17:43:10.281Z</time>
      </trkpt>
      <trkpt lat="45.83989" lon="6.22142">
        <ele>640.54</ele>
        <time>2023-07-05T17:43:12.826Z</time>
      </trkpt>
      <trkpt lat="45.83991" lon="6.22137">
        <ele>634</ele>
        <time>2023-07-05T17:43:15.373Z</time>
      </trkpt>
      <trkpt lat="45.84009" lon="6.22136">
        <ele>627.09</ele>
        <time>2023-07-05T17:43:17.926Z</time>
      </trkpt>
      <trkpt lat="45.84015" lon="6.22121">
        <ele>619.18</ele>
        <time>2023-07-05T17:43:20.483Z</time>
      </trkpt>
      <trkpt lat="45.84014" lon="6.22102">
        <ele>610.81</ele>
        <time>2023-07-05T17:43:23.044Z</time>
      </trkpt>
      <trkpt lat="45.84016" lon="6.22083">
        <ele>602.26</ele>
        <time>2023-07-05T17:43:25.610Z</time>
      </trkpt>
      <trkpt lat="45.84014" lon="6.22067">
        <ele>593.43</ele>
        <time>2023-07-05T17:43:28.179Z</time>
      </trkpt>
      <trkpt lat="45.84018" lon="6.22041">
        <ele>584.05</ele>
        <time>2023-07-05T17:43:30.755Z</time>
      </trkpt>
      <trkpt lat="45.83987" lon="6.21973">
        <ele>573.68</ele>
        <time>2023-07-05T17:43:33.349Z</time>
      </trkpt>
      <trkpt lat="45.83976" lon="6.21926">
        <ele>564.12</ele>
        <time>2023-07-05T17:43:35.955Z</time>
      </trkpt>
      <trkpt lat="45.83961" lon="6.21893">
        <ele>555.06</ele>
        <time>2023-07-05T17:43:38.570Z</time>
      </trkpt>
      <trkpt lat="45.83954" lon="6.21847">
        <ele>546.18</ele>
        <time>2023-07-05T17:43:41.196Z</time>
      </trkpt>
      <trkpt lat="45.83971" lon="6.21842">
        <ele>538.29</ele>
        <time>2023-07-05T17:43:43.828Z</time>
      </trkpt>
      <trkpt lat="45.8398" lon="6.21832">
        <ele>530.22</ele>
        <time>2023-07-05T17:43:46.464Z</time>
      </trkpt>
      <trkpt lat="45.83991" lon="6.21813">
        <ele>522</ele>
        <time>2023-07-05T17:43:49.105Z</time>
      </trkpt>
      <trkpt lat="45.83994" lon="6.21791">
        <ele>514</ele>
        <time>2023-07-05T17:43:51.752Z</time>
      </trkpt>
      <trkpt lat="45.83994" lon="6.21776">
        <ele>506.56</ele>
        <time>2023-07-05T17:43:54.402Z</time>
      </trkpt>
      <trkpt lat="45.83957" lon="6.21707">
        <ele>498.82</ele>
        <time>2023-07-05T17:43:57.072Z</time>
      </trkpt>
      <trkpt lat="45.83949" lon="6.21707">
        <ele>493.24</ele>
        <time>2023-07-05T17:43:59.745Z</time>
      </trkpt>
      <trkpt lat="45.8393" lon="6.21713">
        <ele>487.96</ele>
        <time>2023-07-05T17:44:02.425Z</time>
      </trkpt>
      <trkpt lat="45.83935" lon="6.21703">
        <ele>483.23</ele>
        <time>2023-07-05T17:44:05.107Z</time>
      </trkpt>
      <trkpt lat="45.83939" lon="6.21697">
        <ele>476.9</ele>
      </trkpt>
      <trkpt lat="45.83959" lon="6.21676">
        <ele>465.73</ele>
        <time>2023-07-05T17:35:58.281Z</time>
      </trkpt>
      <trkpt lat="45.83964" lon="6.21682">
        <ele>466.89</ele>
        <time>2023-07-05T17:35:58.356Z</time>
      </trkpt>
      <trkpt lat="45.83971" lon="6.21681">
        <ele>468.17</ele>
        <time>2023-07-05T17:35:58.434Z</time>
      </trkpt>
      <trkpt lat="45.83975" lon="6.21674">
        <ele>469.53</ele>
        <time>2023-07-05T17:35:58.514Z</time>
      </trkpt>
      <trkpt lat="45.83975" lon="6.21667">
        <ele>470.98</ele>
        <time>2023-07-05T17:35:58.595Z</time>
      </trkpt>
      <trkpt lat="45.83991" lon="6.21667">
        <ele>472.7</ele>
        <time>2023-07-05T17:35:58.682Z</time>
      </trkpt>
      <trkpt lat="45.84013" lon="6.21656">
        <ele>474.58</ele>
        <time>2023-07-05T17:35:58.776Z</time>
      </trkpt>
      <trkpt lat="45.84073" lon="6.21611">
        <ele>477.02</ele>
        <time>2023-07-05T17:35:58.893Z</time>
      </trkpt>
      <trkpt lat="45.84073" lon="6.21619">
        <ele>479.58</ele>
        <time>2023-07-05T17:35:59.012Z</time>
      </trkpt>
      <trkpt lat="45.84069" lon="6.21633">
        <ele>482.39</ele>
        <time>2023-07-05T17:35:59.134Z</time>
      </trkpt>
      <trkpt lat="45.84064" lon="6.21667">
        <ele>485.72</ele>
        <time>2023-07-05T17:35:59.264Z</time>
      </trkpt>
      <trkpt lat="45.84064" lon="6.21662">
        <ele>489.05</ele>
        <time>2023-07-05T17:35:59.396Z</time>
      </trkpt>
      <trkpt lat="45.84069" lon="6.21661">
        <ele>492.71</ele>
        <time>2023-07-05T17:35:59.529Z</time>
      </trkpt>
      <trkpt lat="45.84088" lon="6.21649">
        <ele>496.77</ele>
        <time>2023-07-05T17:35:59.669Z</time>
      </trkpt>
      <trkpt lat="45.84094" lon="6.21649">
        <ele>501.05</ele>
        <time>2023-07-05T17:35:59.811Z</time>
      </trkpt>
      <trkpt lat="45.84125" lon="6.2168">
        <ele>506.38</ele>
        <time>2023-07-05T17:35:59.966Z</time>
      </trkpt>
      <trkpt lat="45.84136" lon="6.21687">
        <ele>511.63</ele>
        <time>2023-07-05T17:36:00.125Z</time>
      </trkpt>
      <trkpt lat="45.84148" lon="6.21691">
        <ele>517.13</ele>
        <time>2023-07-05T17:36:00.288Z</time>
      </trkpt>
      <trkpt lat="45.84196" lon="6.21696">
        <ele>523.46</ele>
        <time>2023-07-05T17:36:00.467Z</time>
      </trkpt>
      <trkpt lat="45.84217" lon="6.21704">
        <ele>529.75</ele>
        <time>2023-07-05T17:36:00.653Z</time>
      </trkpt>
      <trkpt lat="45.84265" lon="6.21717">
        <ele>536.57</ele>
        <time>2023-07-05T17:36:00.856Z</time>
      </trkpt>
      <trkpt lat="45.84278" lon="6.21711">
        <ele>543.08</ele>
        <time>2023-07-05T17:36:01.063Z</time>
      </trkpt>
      <trkpt lat="45.84284" lon="6.21714">
        <ele>549.5</ele>
        <time>2023-07-05T17:36:01.272Z</time>
      </trkpt>
      <trkpt lat="45.84301" lon="6.21743">
        <ele>556.14</ele>
        <time>2023-07-05T17:36:01.490Z</time>
      </trkpt>
      <trkpt lat="45.84311" lon="6.21751">
        <ele>562.62</ele>
        <time>2023-07-05T17:36:01.712Z</time>
      </trkpt>
      <trkpt lat="45.84323" lon="6.21761">
        <ele>569.01</ele>
        <time>2023-07-05T17:36:01.939Z</time>
      </trkpt>
      <trkpt lat="45.84337" lon="6.21787">
        <ele>575.44</ele>
        <time>2023-07-05T17:36:02.173Z</time>
      </trkpt>
      <trkpt lat="45.84369" lon="6.21835">
        <ele>582.58</ele>
        <time>2023-07-05T17:36:02.423Z</time>
      </trkpt>
      <trkpt lat="45.84392" lon="6.21879">
        <ele>589.78</ele>
        <time>2023-07-05T17:36:02.685Z</time>
      </trkpt>
      <trkpt lat="45.84404" lon="6.21922">
        <ele>597.24</ele>
        <time>2023-07-05T17:36:02.958Z</time>
      </trkpt>
      <trkpt lat="45.84414" lon="6.21951">
        <ele>604.43</ele>
        <time>2023-07-05T17:36:03.239Z</time>
      </trkpt>
      <trkpt lat="45.84419" lon="6.21977">
        <ele>611.35</ele>
        <time>2023-07-05T17:36:03.526Z</time>
      </trkpt>
      <trkpt lat="45.84417" lon="6.21998">
        <ele>618</ele>
        <time>2023-07-05T17:36:03.818Z</time>
      </trkpt>
      <trkpt lat="45.84425" lon="6.22012">
        <ele>624.27</ele>
        <time>2023-07-05T17:36:04.114Z</time>
      </trkpt>
      <trkpt lat="45.84439" lon="6.22016">
        <ele>629.98</ele>
        <time>2023-07-05T17:36:04.415Z</time>
      </trkpt>
      <trkpt lat="45.84453" lon="6.22026">
        <ele>635.45</ele>
        <time>2023-07-05T17:36:04.721Z</time>
      </trkpt>
      <trkpt lat="45.84463" lon="6.22027">
        <ele>640.29</ele>
        <time>2023-07-05T17:36:05.031Z</time>
      </trkpt>
      <trkpt lat="45.84483" lon="6.22041">
        <ele>645.09</ele>
        <time>2023-07-05T17:36:05.348Z</time>
      </trkpt>
      <trkpt lat="45.84496" lon="6.22047">
        <ele>649.24</ele>
        <time>2023-07-05T17:36:05.669Z</time>
      </trkpt>
      <trkpt lat="45.84488" lon="6.2205">
        <ele>653.02</ele>
        <time>2023-07-05T17:36:05.993Z</time>
      </trkpt>
      <trkpt lat="45.84441" lon="6.22065">
        <ele>656.63</ele>
        <time>2023-07-05T17:36:06.333Z</time>
      </trkpt>
      <trkpt lat="45.84395" lon="6.22073">
        <ele>660.17</ele>
        <time>2023-07-05T17:36:06.689Z</time>
      </trkpt>
      <trkpt lat="45.84369" lon="6.22075">
        <ele>663.29</ele>
        <time>2023-07-05T17:36:07.053Z</time>
      </trkpt>
      <trkpt lat="45.84278" lon="6.2212">
        <ele>666.54</ele>
        <time>2023-07-05T17:36:07.450Z</time>
      </trkpt>
      <trkpt lat="45.84249" lon="6.22145">
        <ele>669.19</ele>
        <time>2023-07-05T17:36:07.858Z</time>
      </trkpt>
      <trkpt lat="45.84223" lon="6.22147">
        <ele>670.34</ele>
        <time>2023-07-05T17:36:08.275Z</time>
      </trkpt>
      <trkpt lat="45.84212" lon="6.22153">
        <ele>671.77</ele>
        <time>2023-07-05T17:36:08.695Z</time>
      </trkpt>
      <trkpt lat="45.842" lon="6.22167">
        <ele>673</ele>
        <time>2023-07-05T17:36:09.121Z</time>
      </trkpt>
      <trkpt lat="45.84194" lon="6.22181">
        <ele>674.23</ele>
        <time>2023-07-05T17:36:09.550Z</time>
      </trkpt>
      <trkpt lat="45.84192" lon="6.2219">
        <ele>675.54</ele>
        <time>2023-07-05T17:36:09.982Z</time>
      </trkpt>
      <trkpt lat="45.84198" lon="6.222">
        <ele>677.2</ele>
        <time>2023-07-05T17:36:10.417Z</time>
      </trkpt>
      <trkpt lat="45.84201" lon="6.22195">
        <ele>678.49</ele>
        <time>2023-07-05T17:36:10.853Z</time>
      </trkpt>
      <trkpt lat="45.84209" lon="6.22181">
        <ele>679.95</ele>
        <time>2023-07-05T17:36:11.293Z</time>
      </trkpt>
      <trkpt lat="45.84224" lon="6.22168">
        <ele>681.82</ele>
        <time>2023-07-05T17:36:11.739Z</time>
      </trkpt>
      <trkpt lat="45.84233" lon="6.22169">
        <ele>683.69</ele>
        <time>2023-07-05T17:36:12.188Z</time>
      </trkpt>
      <trkpt lat="45.84248" lon="6.22181">
        <ele>686.38</ele>
        <time>2023-07-05T17:36:12.643Z</time>
      </trkpt>
      <trkpt lat="45.8425" lon="6.22186">
        <ele>688.51</ele>
        <time>2023-07-05T17:36:13.099Z</time>
      </trkpt>
      <trkpt lat="45.84249" lon="6.22193">
        <ele>690.59</ele>
        <time>2023-07-05T17:36:13.557Z</time>
      </trkpt>
      <trkpt lat="45.84231" lon="6.2222">
        <ele>692.69</ele>
        <time>2023-07-05T17:36:14.024Z</time>
      </trkpt>
      <trkpt lat="45.84205" lon="6.22255">
        <ele>694.27</ele>
        <time>2023-07-05T17:36:14.503Z</time>
      </trkpt>
      <trkpt lat="45.842" lon="6.22274">
        <ele>696.51</ele>
        <time>2023-07-05T17:36:14.986Z</time>
      </trkpt>
      <trkpt lat="45.84198" lon="6.22283">
        <ele>698.63</ele>
        <time>2023-07-05T17:36:15.472Z</time>
      </trkpt>
      <trkpt lat="45.84202" lon="6.22283">
        <ele>700.89</ele>
        <time>2023-07-05T17:36:15.959Z</time>
      </trkpt>
      <trkpt lat="45.84211" lon="6.22259">
        <ele>702.99</ele>
        <time>2023-07-05T17:36:16.452Z</time>
      </trkpt>
      <trkpt lat="45.84222" lon="6.22244">
        <ele>705.41</ele>
        <time>2023-07-05T17:36:16.950Z</time>
      </trkpt>
      <trkpt lat="45.84238" lon="6.22233">
        <ele>708.23</ele>
        <time>2023-07-05T17:36:17.454Z</time>
      </trkpt>
      <trkpt lat="45.84249" lon="6.22236">
        <ele>711.15</ele>
        <time>2023-07-05T17:36:17.962Z</time>
      </trkpt>
      <trkpt lat="45.84282" lon="6.22216">
        <ele>714.16</ele>
        <time>2023-07-05T17:36:18.482Z</time>
      </trkpt>
      <trkpt lat="45.84322" lon="6.22196">
        <ele>716.99</ele>
        <time>2023-07-05T17:36:19.016Z</time>
      </trkpt>
      <trkpt lat="45.84331" lon="6.22199">
        <ele>719.98</ele>
        <time>2023-07-05T17:36:19.553Z</time>
      </trkpt>
      <trkpt lat="45.84373" lon="6.22183">
        <ele>722.48</ele>
        <time>2023-07-05T17:36:20.105Z</time>
      </trkpt>
      <trkpt lat="45.84382" lon="6.22188">
        <ele>725.59</ele>
        <time>2023-07-05T17:36:20.660Z</time>
      </trkpt>
      <trkpt lat="45.84381" lon="6.22193">
        <ele>728.76</ele>
        <time>2023-07-05T17:36:21.216Z</time>
      </trkpt>
      <trkpt lat="45.8438" lon="6.22201">
        <ele>732.12</ele>
        <time>2023-07-05T17:36:21.774Z</time>
      </trkpt>
      <trkpt lat="45.84366" lon="6.2221">
        <ele>735.6</ele>
        <time>2023-07-05T17:36:22.337Z</time>
      </trkpt>
      <trkpt lat="45.84337" lon="6.22255">
        <ele>739.59</ele>
        <time>2023-07-05T17:36:22.914Z</time>
      </trkpt>
      <trkpt lat="45.84331" lon="6.22273">
        <ele>743.13</ele>
        <time>2023-07-05T17:36:23.496Z</time>
      </trkpt>
      <trkpt lat="45.84316" lon="6.22274">
        <ele>746.46</ele>
        <time>2023-07-05T17:36:24.083Z</time>
      </trkpt>
      <trkpt lat="45.84313" lon="6.22298">
        <ele>750.08</ele>
        <time>2023-07-05T17:36:24.676Z</time>
      </trkpt>
      <trkpt lat="45.84316" lon="6.22303">
        <ele>753.73</ele>
        <time>2023-07-05T17:36:25.270Z</time>
      </trkpt>
      <trkpt lat="45.84335" lon="6.22308">
        <ele>757.63</ele>
        <time>2023-07-05T17:36:25.871Z</time>
      </trkpt>
      <trkpt lat="45.84336" lon="6.22324">
        <ele>761.41</ele>
        <time>2023-07-05T17:36:26.475Z</time>
      </trkpt>
      <trkpt lat="45.84385" lon="6.22342">
        <ele>765.81</ele>
        <time>2023-07-05T17:36:27.096Z</time>
      </trkpt>
      <trkpt lat="45.84414" lon="6.22355">
        <ele>770.06</ele>
        <time>2023-07-05T17:36:27.727Z</time>
      </trkpt>
      <trkpt lat="45.84447" lon="6.22424">
        <ele>774.74</ele>
        <time>2023-07-05T17:36:28.378Z</time>
      </trkpt>
      <trkpt lat="45.84503" lon="6.22507">
        <ele>779.23</ele>
        <time>2023-07-05T17:36:29.056Z</time>
      </trkpt>
      <trkpt lat="45.84534" lon="6.22538">
        <ele>783.46</ele>
        <time>2023-07-05T17:36:29.746Z</time>
      </trkpt>
      <trkpt lat="45.84562" lon="6.22577">
        <ele>787.65</ele>
        <time>2023-07-05T17:36:30.449Z</time>
      </trkpt>
      <trkpt lat="45.84596" lon="6.2259">
        <ele>792.03</ele>
        <time>2023-07-05T17:36:31.164Z</time>
      </trkpt>
      <trkpt lat="45.84595" lon="6.2259">
        <ele>796.1</ele>
        <time>2023-07-05T17:36:31.879Z</time>
      </trkpt>
      <trkpt lat="45.84596" lon="6.2259">
        <ele>800.17</ele>
        <time>2023-07-05T17:36:32.595Z</time>
      </trkpt>
      <trkpt lat="45.846" lon="6.22592">
        <ele>804.27</ele>
        <time>2023-07-05T17:36:33.312Z</time>
      </trkpt>
      <trkpt lat="45.84625" lon="6.22592">
        <ele>808.61</ele>
        <time>2023-07-05T17:36:34.038Z</time>
      </trkpt>
      <trkpt lat="45.84643" lon="6.22587">
        <ele>812.91</ele>
        <time>2023-07-05T17:36:34.770Z</time>
      </trkpt>
      <trkpt lat="45.84647" lon="6.22581">
        <ele>817.07</ele>
        <time>2023-07-05T17:36:35.504Z</time>
      </trkpt>
      <trkpt lat="45.84666" lon="6.22563">
        <ele>821.4</ele>
        <time>2023-07-05T17:36:36.245Z</time>
      </trkpt>
      <trkpt lat="45.84679" lon="6.22558">
        <ele>825.68</ele>
        <time>2023-07-05T17:36:36.991Z</time>
      </trkpt>
      <trkpt lat="45.84741" lon="6.22534">
        <ele>830.79</ele>
        <time>2023-07-05T17:36:37.758Z</time>
      </trkpt>
      <trkpt lat="45.8476" lon="6.22542">
        <ele>835.47</ele>
        <time>2023-07-05T17:36:38.532Z</time>
      </trkpt>
      <trkpt lat="45.84764" lon="6.22554">
        <ele>839.99</ele>
        <time>2023-07-05T17:36:39.309Z</time>
      </trkpt>
      <trkpt lat="45.84792" lon="6.22536">
        <ele>844.64</ele>
        <time>2023-07-05T17:36:40.096Z</time>
      </trkpt>
      <trkpt lat="45.84813" lon="6.22535">
        <ele>849.44</ele>
        <time>2023-07-05T17:36:40.890Z</time>
      </trkpt>
      <trkpt lat="45.8482" lon="6.22544">
        <ele>854.23</ele>
        <time>2023-07-05T17:36:41.687Z</time>
      </trkpt>
      <trkpt lat="45.8483" lon="6.22547">
        <ele>859.1</ele>
        <time>2023-07-05T17:36:42.488Z</time>
      </trkpt>
      <trkpt lat="45.84877" lon="6.22576">
        <ele>864.53</ele>
        <time>2023-07-05T17:36:43.306Z</time>
      </trkpt>
      <trkpt lat="45.84882" lon="6.22585">
        <ele>869.59</ele>
        <time>2023-07-05T17:36:44.126Z</time>
      </trkpt>
      <trkpt lat="45.84913" lon="6.22612">
        <ele>875.1</ele>
        <time>2023-07-05T17:36:44.958Z</time>
      </trkpt>
      <trkpt lat="45.84942" lon="6.22649">
        <ele>880.63</ele>
        <time>2023-07-05T17:36:45.803Z</time>
      </trkpt>
      <trkpt lat="45.84954" lon="6.22647">
        <ele>885.95</ele>
        <time>2023-07-05T17:36:46.652Z</time>
      </trkpt>
      <trkpt lat="45.84971" lon="6.22652">
        <ele>891.4</ele>
        <time>2023-07-05T17:36:47.507Z</time>
      </trkpt>
      <trkpt lat="45.84988" lon="6.22657">
        <ele>896.99</ele>
        <time>2023-07-05T17:36:48.368Z</time>
      </trkpt>
      <trkpt lat="45.85009" lon="6.22667">
        <ele>902.89</ele>
        <time>2023-07-05T17:36:49.236Z</time>
      </trkpt>
      <trkpt lat="45.85011" lon="6.22668">
        <ele>908.64</ele>
        <time>2023-07-05T17:36:50.105Z</time>
      </trkpt>
      <trkpt lat="45.8501" lon="6.22674">
        <ele>914.53</ele>
        <time>2023-07-05T17:36:50.976Z</time>
      </trkpt>
      <trkpt lat="45.85013" lon="6.22706">
        <ele>920.94</ele>
        <time>2023-07-05T17:36:51.854Z</time>
      </trkpt>
      <trkpt lat="45.85013" lon="6.22715">
        <ele>927.14</ele>
        <time>2023-07-05T17:36:52.734Z</time>
      </trkpt>
      <trkpt lat="45.85023" lon="6.22754">
        <ele>933.8</ele>
        <time>2023-07-05T17:36:53.624Z</time>
      </trkpt>
      <trkpt lat="45.85043" lon="6.22813">
        <ele>940.78</ele>
        <time>2023-07-05T17:36:54.529Z</time>
      </trkpt>
      <trkpt lat="45.85074" lon="6.22866">
        <ele>947.9</ele>
        <time>2023-07-05T17:36:55.450Z</time>
      </trkpt>
      <trkpt lat="45.85066" lon="6.22888">
        <ele>954.71</ele>
        <time>2023-07-05T17:36:56.377Z</time>
      </trkpt>
      <trkpt lat="45.85059" lon="6.22915">
        <ele>961.59</ele>
        <time>2023-07-05T17:36:57.311Z</time>
      </trkpt>
      <trkpt lat="45.85043" lon="6.22939">
        <ele>968.48</ele>
        <time>2023-07-05T17:36:58.252Z</time>
      </trkpt>
      <trkpt lat="45.85021" lon="6.22984">
        <ele>975.48</ele>
        <time>2023-07-05T17:36:59.206Z</time>
      </trkpt>
      <trkpt lat="45.84997" lon="6.23057">
        <ele>983.05</ele>
        <time>2023-07-05T17:37:00.179Z</time>
      </trkpt>
      <trkpt lat="45.84998" lon="6.23078">
        <ele>990.22</ele>
        <time>2023-07-05T17:37:01.157Z</time>
      </trkpt>
      <trkpt lat="45.84997" lon="6.23094">
        <ele>997.23</ele>
        <time>2023-07-05T17:37:02.139Z</time>
      </trkpt>
      <trkpt lat="45.84993" lon="6.23103">
        <ele>1004.11</ele>
        <time>2023-07-05T17:37:03.123Z</time>
      </trkpt>
      <trkpt lat="45.84985" lon="6.2311">
        <ele>1010.89</ele>
        <time>2023-07-05T17:37:04.110Z</time>
      </trkpt>
      <trkpt lat="45.8498" lon="6.23159">
        <ele>1017.97</ele>
        <time>2023-07-05T17:37:05.109Z</time>
      </trkpt>
      <trkpt lat="45.84983" lon="6.23205">
        <ele>1025.03</ele>
        <time>2023-07-05T17:37:06.119Z</time>
      </trkpt>
      <trkpt lat="45.84988" lon="6.23224">
        <ele>1031.89</ele>
        <time>2023-07-05T17:37:07.133Z</time>
      </trkpt>
      <trkpt lat="45.85008" lon="6.2324">
        <ele>1038.94</ele>
        <time>2023-07-05T17:37:08.155Z</time>
      </trkpt>
      <trkpt lat="45.8502" lon="6.23261">
        <ele>1045.85</ele>
        <time>2023-07-05T17:37:09.183Z</time>
      </trkpt>
      <trkpt lat="45.85017" lon="6.23293">
        <ele>1052.45</ele>
        <time>2023-07-05T17:37:10.219Z</time>
      </trkpt>
      <trkpt lat="45.85006" lon="6.23331">
        <ele>1058.79</ele>
        <time>2023-07-05T17:37:11.264Z</time>
      </trkpt>
      <trkpt lat="45.85002" lon="6.23381">
        <ele>1065.04</ele>
        <time>2023-07-05T17:37:12.321Z</time>
      </trkpt>
      <trkpt lat="45.85002" lon="6.23434">
        <ele>1071.26</ele>
        <time>2023-07-05T17:37:13.390Z</time>
      </trkpt>
      <trkpt lat="45.84998" lon="6.23462">
        <ele>1076.98</ele>
        <time>2023-07-05T17:37:14.466Z</time>
      </trkpt>
      <trkpt lat="45.85004" lon="6.23494">
        <ele>1082.72</ele>
        <time>2023-07-05T17:37:15.550Z</time>
      </trkpt>
      <trkpt lat="45.85005" lon="6.235">
        <ele>1087.93</ele>
        <time>2023-07-05T17:37:16.635Z</time>
      </trkpt>
      <trkpt lat="45.85018" lon="6.23532">
        <ele>1093.25</ele>
        <time>2023-07-05T17:37:17.729Z</time>
      </trkpt>
      <trkpt lat="45.8504" lon="6.23534">
        <ele>1098.21</ele>
        <time>2023-07-05T17:37:18.830Z</time>
      </trkpt>
      <trkpt lat="45.85066" lon="6.2352">
        <ele>1102.94</ele>
        <time>2023-07-05T17:37:19.941Z</time>
      </trkpt>
      <trkpt lat="45.85103" lon="6.23495">
        <ele>1107.47</ele>
        <time>2023-07-05T17:37:21.065Z</time>
      </trkpt>
      <trkpt lat="45.85193" lon="6.23391">
        <ele>1111.9</ele>
        <time>2023-07-05T17:37:22.228Z</time>
      </trkpt>
      <trkpt lat="45.85207" lon="6.23376">
        <ele>1115.04</ele>
        <time>2023-07-05T17:37:23.397Z</time>
      </trkpt>
      <trkpt lat="45.8522" lon="6.2337">
        <ele>1117.77</ele>
        <time>2023-07-05T17:37:24.570Z</time>
      </trkpt>
      <trkpt lat="45.85211" lon="6.2331">
        <ele>1119.16</ele>
        <time>2023-07-05T17:37:25.757Z</time>
      </trkpt>
      <trkpt lat="45.85203" lon="6.23291">
        <ele>1120.6</ele>
        <time>2023-07-05T17:37:26.950Z</time>
      </trkpt>
      <trkpt lat="45.85229" lon="6.23287">
        <ele>1121.91</ele>
        <time>2023-07-05T17:37:28.151Z</time>
      </trkpt>
      <trkpt lat="45.85248" lon="6.23291">
        <ele>1122.8</ele>
        <time>2023-07-05T17:37:29.359Z</time>
      </trkpt>
      <trkpt lat="45.85305" lon="6.23312">
        <ele>1123.24</ele>
        <time>2023-07-05T17:37:30.586Z</time>
      </trkpt>
      <trkpt lat="45.85326" lon="6.23313">
        <ele>1122.96</ele>
        <time>2023-07-05T17:37:31.820Z</time>
      </trkpt>
      <trkpt lat="45.8536" lon="6.23344">
        <ele>1122.8</ele>
        <time>2023-07-05T17:37:33.068Z</time>
      </trkpt>
      <trkpt lat="45.85404" lon="6.23362">
        <ele>1122.33</ele>
        <time>2023-07-05T17:37:34.331Z</time>
      </trkpt>
      <trkpt lat="45.85419" lon="6.23354">
        <ele>1120.87</ele>
        <time>2023-07-05T17:37:35.599Z</time>
      </trkpt>
      <trkpt lat="45.85426" lon="6.2332">
        <ele>1118.43</ele>
        <time>2023-07-05T17:37:36.876Z</time>
      </trkpt>
      <trkpt lat="45.85475" lon="6.23287">
        <ele>1116.49</ele>
        <time>2023-07-05T17:37:38.171Z</time>
      </trkpt>
      <trkpt lat="45.85491" lon="6.23242">
        <ele>1113.67</ele>
        <time>2023-07-05T17:37:39.477Z</time>
      </trkpt>
      <trkpt lat="45.85492" lon="6.23224">
        <ele>1110.7</ele>
        <time>2023-07-05T17:37:40.788Z</time>
      </trkpt>
      <trkpt lat="45.85487" lon="6.23206">
        <ele>1107.32</ele>
        <time>2023-07-05T17:37:42.103Z</time>
      </trkpt>
      <trkpt lat="45.85457" lon="6.23147">
        <ele>1103.41</ele>
        <time>2023-07-05T17:37:43.435Z</time>
      </trkpt>
      <trkpt lat="45.85455" lon="6.23117">
        <ele>1099.6</ele>
        <time>2023-07-05T17:37:44.774Z</time>
      </trkpt>
      <trkpt lat="45.8542" lon="6.23034">
        <ele>1095.07</ele>
        <time>2023-07-05T17:37:46.136Z</time>
      </trkpt>
      <trkpt lat="45.85418" lon="6.23017">
        <ele>1090.64</ele>
        <time>2023-07-05T17:37:47.502Z</time>
      </trkpt>
      <trkpt lat="45.8543" lon="6.22999">
        <ele>1086.14</ele>
        <time>2023-07-05T17:37:48.874Z</time>
      </trkpt>
      <trkpt lat="45.85433" lon="6.22994">
        <ele>1081.36</ele>
        <time>2023-07-05T17:37:50.247Z</time>
      </trkpt>
      <trkpt lat="45.85433" lon="6.22982">
        <ele>1076.29</ele>
        <time>2023-07-05T17:37:51.623Z</time>
      </trkpt>
      <trkpt lat="45.85422" lon="6.22959">
        <ele>1070.79</ele>
        <time>2023-07-05T17:37:53.005Z</time>
      </trkpt>
      <trkpt lat="45.85409" lon="6.22953">
        <ele>1065.27</ele>
        <time>2023-07-05T17:37:54.392Z</time>
      </trkpt>
      <trkpt lat="45.85384" lon="6.22911">
        <ele>1058.97</ele>
        <time>2023-07-05T17:37:55.792Z</time>
      </trkpt>
      <trkpt lat="45.85382" lon="6.22891">
        <ele>1053.39</ele>
        <time>2023-07-05T17:37:57.197Z</time>
      </trkpt>
      <trkpt lat="45.85383" lon="6.22864">
        <ele>1047.78</ele>
        <time>2023-07-05T17:37:58.608Z</time>
      </trkpt>
      <trkpt lat="45.85397" lon="6.22829">
        <ele>1042.31</ele>
        <time>2023-07-05T17:38:00.028Z</time>
      </trkpt>
      <trkpt lat="45.8543" lon="6.22763">
        <ele>1036.49</ele>
        <time>2023-07-05T17:38:01.467Z</time>
      </trkpt>
      <trkpt lat="45.85482" lon="6.22689">
        <ele>1030.38</ele>
        <time>2023-07-05T17:38:02.931Z</time>
      </trkpt>
      <trkpt lat="45.85496" lon="6.2266">
        <ele>1024.71</ele>
        <time>2023-07-05T17:38:04.403Z</time>
      </trkpt>
      <trkpt lat="45.85501" lon="6.22627">
        <ele>1019.29</ele>
        <time>2023-07-05T17:38:05.883Z</time>
      </trkpt>
      <trkpt lat="45.85495" lon="6.22593">
        <ele>1013.97</ele>
        <time>2023-07-05T17:38:07.371Z</time>
      </trkpt>
      <trkpt lat="45.85485" lon="6.22575">
        <ele>1008.76</ele>
        <time>2023-07-05T17:38:08.864Z</time>
      </trkpt>
      <trkpt lat="45.85467" lon="6.22555">
        <ele>1003.55</ele>
        <time>2023-07-05T17:38:10.365Z</time>
      </trkpt>
      <trkpt lat="45.8542" lon="6.22539">
        <ele>998.29</ele>
        <time>2023-07-05T17:38:11.882Z</time>
      </trkpt>
      <trkpt lat="45.85408" lon="6.22534">
        <ele>993.34</ele>
        <time>2023-07-05T17:38:13.403Z</time>
      </trkpt>
      <trkpt lat="45.85329" lon="6.2251">
        <ele>987.91</ele>
        <time>2023-07-05T17:38:14.951Z</time>
      </trkpt>
      <trkpt lat="45.8528" lon="6.22517">
        <ele>982.71</ele>
        <time>2023-07-05T17:38:16.515Z</time>
      </trkpt>
      <trkpt lat="45.85265" lon="6.22477">
        <ele>978.1</ele>
        <time>2023-07-05T17:38:18.090Z</time>
      </trkpt>
      <trkpt lat="45.85261" lon="6.22459">
        <ele>973.64</ele>
        <time>2023-07-05T17:38:19.669Z</time>
      </trkpt>
      <trkpt lat="45.85258" lon="6.22424">
        <ele>969.26</ele>
        <time>2023-07-05T17:38:21.257Z</time>
      </trkpt>
      <trkpt lat="45.85258" lon="6.22406">
        <ele>964.9</ele>
        <time>2023-07-05T17:38:22.849Z</time>
      </trkpt>
      <trkpt lat="45.85261" lon="6.2239">
        <ele>960.75</ele>
        <time>2023-07-05T17:38:24.445Z</time>
      </trkpt>
      <trkpt lat="45.85265" lon="6.2238">
        <ele>956.58</ele>
        <time>2023-07-05T17:38:26.043Z</time>
      </trkpt>
      <trkpt lat="45.85276" lon="6.22364">
        <ele>952.39</ele>
        <time>2023-07-05T17:38:27.647Z</time>
      </trkpt>
      <trkpt lat="45.85279" lon="6.22364">
        <ele>948.22</ele>
        <time>2023-07-05T17:38:29.252Z</time>
      </trkpt>
      <trkpt lat="45.85308" lon="6.22337">
        <ele>943.89</ele>
        <time>2023-07-05T17:38:30.868Z</time>
      </trkpt>
      <trkpt lat="45.85312" lon="6.22333">
        <ele>939.69</ele>
        <time>2023-07-05T17:38:32.486Z</time>
      </trkpt>
      <trkpt lat="45.853" lon="6.22292">
        <ele>935.07</ele>
        <time>2023-07-05T17:38:34.114Z</time>
      </trkpt>
      <trkpt lat="45.85273" lon="6.22293">
        <ele>931.1</ele>
        <time>2023-07-05T17:38:35.751Z</time>
      </trkpt>
      <trkpt lat="45.85266" lon="6.22277">
        <ele>926.68</ele>
        <time>2023-07-05T17:38:37.393Z</time>
      </trkpt>
      <trkpt lat="45.8527" lon="6.22273">
        <ele>922.49</ele>
        <time>2023-07-05T17:38:39.036Z</time>
      </trkpt>
      <trkpt lat="45.85272" lon="6.22258">
        <ele>918.02</ele>
        <time>2023-07-05T17:38:40.683Z</time>
      </trkpt>
      <trkpt lat="45.85292" lon="6.22232">
        <ele>913.36</ele>
        <time>2023-07-05T17:38:42.339Z</time>
      </trkpt>
      <trkpt lat="45.85284" lon="6.22199">
        <ele>908.29</ele>
        <time>2023-07-05T17:38:44.003Z</time>
      </trkpt>
      <trkpt lat="45.85331" lon="6.22165">
        <ele>903.7</ele>
        <time>2023-07-05T17:38:45.684Z</time>
      </trkpt>
      <trkpt lat="45.85334" lon="6.22151">
        <ele>899.4</ele>
        <time>2023-07-05T17:38:47.369Z</time>
      </trkpt>
      <trkpt lat="45.85331" lon="6.22152">
        <ele>895.76</ele>
        <time>2023-07-05T17:38:49.055Z</time>
      </trkpt>
      <trkpt lat="45.85311" lon="6.22145">
        <ele>891.6</ele>
        <time>2023-07-05T17:38:50.748Z</time>
      </trkpt>
      <trkpt lat="45.85309" lon="6.22144">
        <ele>888.07</ele>
        <time>2023-07-05T17:38:52.441Z</time>
      </trkpt>
      <trkpt lat="45.85249" lon="6.22183">
        <ele>885.44</ele>
        <time>2023-07-05T17:38:54.156Z</time>
      </trkpt>
      <trkpt lat="45.85233" lon="6.22196">
        <ele>882.68</ele>
        <time>2023-07-05T17:38:55.878Z</time>
      </trkpt>
      <trkpt lat="45.85219" lon="6.22199">
        <ele>879.47</ele>
        <time>2023-07-05T17:38:57.604Z</time>
      </trkpt>
      <trkpt lat="45.85205" lon="6.22207">
        <ele>876.65</ele>
        <time>2023-07-05T17:38:59.335Z</time>
      </trkpt>
      <trkpt lat="45.85154" lon="6.22218">
        <ele>873.62</ele>
        <time>2023-07-05T17:39:01.084Z</time>
      </trkpt>
      <trkpt lat="45.85108" lon="6.22239">
        <ele>870.38</ele>
        <time>2023-07-05T17:39:02.849Z</time>
      </trkpt>
      <trkpt lat="45.85063" lon="6.22241">
        <ele>866.52</ele>
        <time>2023-07-05T17:39:04.629Z</time>
      </trkpt>
      <trkpt lat="45.85046" lon="6.22246">
        <ele>863.42</ele>
        <time>2023-07-05T17:39:06.414Z</time>
      </trkpt>
      <trkpt lat="45.85011" lon="6.22251">
        <ele>859.89</ele>
        <time>2023-07-05T17:39:08.211Z</time>
      </trkpt>
      <trkpt lat="45.8499" lon="6.22257">
        <ele>856.56</ele>
        <time>2023-07-05T17:39:10.015Z</time>
      </trkpt>
      <trkpt lat="45.84952" lon="6.22284">
        <ele>854.01</ele>
        <time>2023-07-05T17:39:11.833Z</time>
      </trkpt>
      <trkpt lat="45.84935" lon="6.22294">
        <ele>851.19</ele>
        <time>2023-07-05T17:39:13.658Z</time>
      </trkpt>
      <trkpt lat="45.84921" lon="6.22287">
        <ele>848.01</ele>
        <time>2023-07-05T17:39:15.487Z</time>
      </trkpt>
      <trkpt lat="45.84873" lon="6.22295">
        <ele>844.86</ele>
        <time>2023-07-05T17:39:17.333Z</time>
      </trkpt>
      <trkpt lat="45.84851" lon="6.22305">
        <ele>842.27</ele>
        <time>2023-07-05T17:39:19.186Z</time>
      </trkpt>
      <trkpt lat="45.84813" lon="6.22328">
        <ele>839.44</ele>
        <time>2023-07-05T17:39:21.053Z</time>
      </trkpt>
      <trkpt lat="45.84767" lon="6.22382">
        <ele>836.69</ele>
        <time>2023-07-05T17:39:22.940Z</time>
      </trkpt>
      <trkpt lat="45.84771" lon="6.22382">
        <ele>834.29</ele>
        <time>2023-07-05T17:39:24.828Z</time>
      </trkpt>
      <trkpt lat="45.84767" lon="6.22382">
        <ele>831.86</ele>
        <time>2023-07-05T17:39:26.718Z</time>
      </trkpt>
      <trkpt lat="45.84751" lon="6.22415">
        <ele>829.43</ele>
        <time>2023-07-05T17:39:28.617Z</time>
      </trkpt>
      <trkpt lat="45.84736" lon="6.22431">
        <ele>827.01</ele>
        <time>2023-07-05T17:39:30.522Z</time>
      </trkpt>
      <trkpt lat="45.84721" lon="6.22443">
        <ele>824.59</ele>
        <time>2023-07-05T17:39:32.433Z</time>
      </trkpt>
      <trkpt lat="45.84709" lon="6.22463">
        <ele>822.2</ele>
        <time>2023-07-05T17:39:34.350Z</time>
      </trkpt>
      <trkpt lat="45.84709" lon="6.22504">
        <ele>820.19</ele>
        <time>2023-07-05T17:39:36.277Z</time>
      </trkpt>
      <trkpt lat="45.84704" lon="6.22515">
        <ele>817.97</ele>
        <time>2023-07-05T17:39:38.207Z</time>
      </trkpt>
      <trkpt lat="45.84675" lon="6.22516">
        <ele>815.58</ele>
        <time>2023-07-05T17:39:40.146Z</time>
      </trkpt>
      <trkpt lat="45.84665" lon="6.22525">
        <ele>813.46</ele>
        <time>2023-07-05T17:39:42.089Z</time>
      </trkpt>
      <trkpt lat="45.84653" lon="6.22543">
        <ele>811.31</ele>
        <time>2023-07-05T17:39:44.038Z</time>
      </trkpt>
      <trkpt lat="45.84646" lon="6.22564">
        <ele>809.11</ele>
        <time>2023-07-05T17:39:45.992Z</time>
      </trkpt>
      <trkpt lat="45.84647" lon="6.22581">
        <ele>806.95</ele>
        <time>2023-07-05T17:39:47.950Z</time>
      </trkpt>
      <trkpt lat="45.84643" lon="6.22587">
        <ele>804.75</ele>
        <time>2023-07-05T17:39:49.910Z</time>
      </trkpt>
      <trkpt lat="45.84625" lon="6.22592">
        <ele>802.38</ele>
        <time>2023-07-05T17:39:51.877Z</time>
      </trkpt>
      <trkpt lat="45.846" lon="6.22592">
        <ele>799.95</ele>
        <time>2023-07-05T17:39:53.852Z</time>
      </trkpt>
      <trkpt lat="45.84591" lon="6.22608">
        <ele>797.66</ele>
        <time>2023-07-05T17:39:55.832Z</time>
      </trkpt>
      <trkpt lat="45.84564" lon="6.22616">
        <ele>795.21</ele>
        <time>2023-07-05T17:39:57.821Z</time>
      </trkpt>
      <trkpt lat="45.84557" lon="6.2262">
        <ele>793</ele>
        <time>2023-07-05T17:39:59.812Z</time>
      </trkpt>
      <trkpt lat="45.8455" lon="6.2264">
        <ele>790.81</ele>
        <time>2023-07-05T17:40:01.809Z</time>
      </trkpt>
      <trkpt lat="45.84528" lon="6.22681">
        <ele>788.52</ele>
        <time>2023-07-05T17:40:03.818Z</time>
      </trkpt>
      <trkpt lat="45.84521" lon="6.22698">
        <ele>786.52</ele>
        <time>2023-07-05T17:40:05.831Z</time>
      </trkpt>
      <trkpt lat="45.84507" lon="6.22713">
        <ele>784.5</ele>
        <time>2023-07-05T17:40:07.850Z</time>
      </trkpt>
      <trkpt lat="45.84504" lon="6.22716">
        <ele>782.57</ele>
        <time>2023-07-05T17:40:09.870Z</time>
      </trkpt>
      <trkpt lat="45.84485" lon="6.22718">
        <ele>780.43</ele>
        <time>2023-07-05T17:40:11.897Z</time>
      </trkpt>
      <trkpt lat="45.84474" lon="6.22722">
        <ele>778.53</ele>
        <time>2023-07-05T17:40:13.927Z</time>
      </trkpt>
      <trkpt lat="45.84452" lon="6.22734">
        <ele>776.56</ele>
        <time>2023-07-05T17:40:15.965Z</time>
      </trkpt>
      <trkpt lat="45.84441" lon="6.22743">
        <ele>774.92</ele>
        <time>2023-07-05T17:40:18.007Z</time>
      </trkpt>
      <trkpt lat="45.84438" lon="6.22749">
        <ele>773.48</ele>
        <time>2023-07-05T17:40:20.051Z</time>
      </trkpt>
      <trkpt lat="45.84413" lon="6.22809">
        <ele>771.86</ele>
        <time>2023-07-05T17:40:22.111Z</time>
      </trkpt>
      <trkpt lat="45.84406" lon="6.22836">
        <ele>770.58</ele>
        <time>2023-07-05T17:40:24.178Z</time>
      </trkpt>
      <trkpt lat="45.84392" lon="6.2287">
        <ele>769.32</ele>
        <time>2023-07-05T17:40:26.254Z</time>
      </trkpt>
      <trkpt lat="45.84391" lon="6.22919">
        <ele>768.67</ele>
        <time>2023-07-05T17:40:28.342Z</time>
      </trkpt>
      <trkpt lat="45.84382" lon="6.22946">
        <ele>767.67</ele>
        <time>2023-07-05T17:40:30.437Z</time>
      </trkpt>
      <trkpt lat="45.84357" lon="6.22996">
        <ele>766.64</ele>
        <time>2023-07-05T17:40:32.546Z</time>
      </trkpt>
      <trkpt lat="45.84337" lon="6.23044">
        <ele>765.87</ele>
        <time>2023-07-05T17:40:34.668Z</time>
      </trkpt>
      <trkpt lat="45.84332" lon="6.23044">
        <ele>764.93</ele>
        <time>2023-07-05T17:40:36.792Z</time>
      </trkpt>
      <trkpt lat="45.84329" lon="6.23037">
        <ele>763.92</ele>
        <time>2023-07-05T17:40:38.918Z</time>
      </trkpt>
      <trkpt lat="45.84324" lon="6.23014">
        <ele>762.79</ele>
        <time>2023-07-05T17:40:41.049Z</time>
      </trkpt>
      <trkpt lat="45.84306" lon="6.22951">
        <ele>761.76</ele>
        <time>2023-07-05T17:40:43.196Z</time>
      </trkpt>
      <trkpt lat="45.84291" lon="6.22915">
        <ele>760.76</ele>
        <time>2023-07-05T17:40:45.353Z</time>
      </trkpt>
      <trkpt lat="45.84281" lon="6.22886">
        <ele>759.67</ele>
        <time>2023-07-05T17:40:47.517Z</time>
      </trkpt>
      <trkpt lat="45.84273" lon="6.22876">
        <ele>758.62</ele>
        <time>2023-07-05T17:40:49.685Z</time>
      </trkpt>
      <trkpt lat="45.84266" lon="6.22873">
        <ele>757.56</ele>
        <time>2023-07-05T17:40:51.855Z</time>
      </trkpt>
      <trkpt lat="45.84261" lon="6.22871">
        <ele>756.45</ele>
        <time>2023-07-05T17:40:54.027Z</time>
      </trkpt>
      <trkpt lat="45.84254" lon="6.22859">
        <ele>755.24</ele>
        <time>2023-07-05T17:40:56.203Z</time>
      </trkpt>
      <trkpt lat="45.84238" lon="6.22848">
        <ele>754.01</ele>
        <time>2023-07-05T17:40:58.385Z</time>
      </trkpt>
      <trkpt lat="45.8414" lon="6.22821">
        <ele>752.45</ele>
        <time>2023-07-05T17:41:00.600Z</time>
      </trkpt>
      <trkpt lat="45.84108" lon="6.2281">
        <ele>751.05</ele>
        <time>2023-07-05T17:41:02.826Z</time>
      </trkpt>
      <trkpt lat="45.84089" lon="6.22807">
        <ele>749.61</ele>
        <time>2023-07-05T17:41:05.058Z</time>
      </trkpt>
      <trkpt lat="45.8406" lon="6.22818">
        <ele>748.09</ele>
        <time>2023-07-05T17:41:07.300Z</time>
      </trkpt>
      <trkpt lat="45.84027" lon="6.22835">
        <ele>746.61</ele>
        <time>2023-07-05T17:41:09.554Z</time>
      </trkpt>
      <trkpt lat="45.84011" lon="6.2284">
        <ele>745.1</ele>
        <time>2023-07-05T17:41:11.814Z</time>
      </trkpt>
      <trkpt lat="45.83999" lon="6.22836">
        <ele>743.54</ele>
        <time>2023-07-05T17:41:14.078Z</time>
      </trkpt>
      <trkpt lat="45.83991" lon="6.22829">
        <ele>741.95</ele>
        <time>2023-07-05T17:41:16.345Z</time>
      </trkpt>
      <trkpt lat="45.83963" lon="6.2278">
        <ele>740.22</ele>
        <time>2023-07-05T17:41:18.627Z</time>
      </trkpt>
      <trkpt lat="45.83956" lon="6.22775">
        <ele>738.61</ele>
        <time>2023-07-05T17:41:20.911Z</time>
      </trkpt>
      <trkpt lat="45.83946" lon="6.22771">
        <ele>736.96</ele>
        <time>2023-07-05T17:41:23.199Z</time>
      </trkpt>
      <trkpt lat="45.83936" lon="6.22771">
        <ele>735.29</ele>
        <time>2023-07-05T17:41:25.490Z</time>
      </trkpt>
      <trkpt lat="45.83936" lon="6.22771">
        <ele>735.9</ele>
        <time>2023-07-05T17:41:25.490Z</time>
      </trkpt>
    </trkseg>
  </trk>
</gpx>